Aérodrome :
LOGIN :

S'inscrire | Disclaimer

   EN    FR    IT 

 










Légende :    VFR   VFR Marginal   IFR   IFR Intensif   IFR Très Intensif
Visi : 
Plafond : 
>= 8 km
>= 3000ft
5 à 8 km
1000 à 3000 ft
1500m à 5 km
500 à 1000 ft
800 à 1500m
200 à 500 ft
< 800m
< 200 ft
Symboles :   Orages  Brouillard  Fortes neiges  Fortes précipitations  Vent > 20 kt
SIGMETs :   Divers  Orages  Givrage  Turbulence  Onde Orograph.  Cendres Volcan.







- Altitude de l'aérodrome : -11 ft
- Code IATA : AMS


EHAM - Amsterdam Schiphol

DERNIER METAR :
  • 172055Z 22007KT 9999 FEW035 BKN042 07/03 Q1025 NOSIG

METARs EXPIRÉS :
  • 172025Z 22007KT 200V260 9999 FEW034 BKN042 07/03 Q1025 NOSIG
  • 171955Z 22006KT 9999 FEW034 04/01 Q1025 NOSIG
  • 171925Z 22007KT 9999 FEW035 05/02 Q1025 NOSIG
  • 171855Z 23005KT 200V260 9999 FEW034 05/02 Q1025 NOSIG
  • 171825Z 25006KT 9999 FEW034 07/02 Q1025 NOSIG

TAF TAF EHAM
Valide du 17 à 18h jusqu'au 19 à 00h UTC


171715Z 1718/1824 24005KT 9999 FEW030
BECMG 1803/1806 26013KT
BECMG 1806/1809 27018G28KT
TEMPO 1812/1815 30021G33KT 6000 SHRA SCT020CB BKN030
BECMG 1814/1817 29012KT
PROB30
TEMPO 1815/1824 30015G25KT 7000 -SHRA FEW025TCU
Pas de NOTAMs connus pour ce terrain.



MET'MAP, la Météo Aéronautique d'un coup d'oeil ! - Copyright ORBIFLY Décembre 2007 - Disclaimer

ORBIFLY MET'MAP TEAM :

Programmation & Développement : Alexandra Zaïnal
Conception & Développement : Baudouin d'Aumeries
Co-Programmation & Développement : Marc-Olivier Méhu
Soutien technique & logistique : Manuel Goepfert

Contact : metmap@orbifly.com




SOURCES & CREDITS :

   NOAA